Time;durP1;ratioP1;P1;durP2;ratioP2;P2;SDS_P1;SDS_P2;PMS_P1;PMS_P2;Temp;Humidity;BMP_temperature;BMP_pressure;BME280_temperature;BME280_humidity;BME280_pressure;Samples;Min_cycle;Max_cycle;Signal;HPM_P1;HPM_P2
2023/01/19 00:00:56;;;;;;;14.95;10.25;;;;;;;-1.41;60.57;94116.66;5066401;28;20028;-74
2023/01/19 00:03:22;;;;;;;16.92;9.95;;;;;;;-1.64;60.18;94130.00;5071472;28;20040;-74
2023/01/19 00:05:47;;;;;;;14.77;9.13;;;;;;;-1.64;57.52;94120.41;5050085;28;20113;-74
2023/01/19 00:08:16;;;;;;;14.65;8.70;;;;;;;-1.46;56.79;94117.91;5050403;28;20032;-74
2023/01/19 00:10:43;;;;;;;15.70;9.50;;;;;;;-1.37;59.10;94118.84;5068225;28;20250;-74
2023/01/19 00:13:08;;;;;;;15.63;9.38;;;;;;;-1.50;58.53;94121.75;5048882;28;20377;-74
2023/01/19 00:15:34;;;;;;;14.95;9.82;;;;;;;-1.50;59.65;94124.38;5051229;28;20036;-74
2023/01/19 00:17:59;;;;;;;15.50;10.27;;;;;;;-1.63;58.67;94132.47;5051759;28;20028;-74
2023/01/19 00:20:25;;;;;;;14.27;9.60;;;;;;;-1.48;60.61;94130.28;5070939;28;20633;-74
2023/01/19 00:22:50;;;;;;;13.52;8.52;;;;;;;-1.46;58.13;94125.72;5065466;28;20045;-74
2023/01/19 00:25:16;;;;;;;18.60;11.18;;;;;;;-1.34;60.81;94120.34;5068859;28;20080;-74
2023/01/19 00:27:48;;;;;;;15.38;9.68;;;;;;;-1.18;60.32;94124.16;5066177;28;20040;-75
2023/01/19 00:30:14;;;;;;;16.35;10.32;;;;;;;-1.05;60.63;94131.69;5067023;28;20110;-74
2023/01/19 00:32:40;;;;;;;14.35;9.20;;;;;;;-1.12;55.80;94134.88;5070821;28;20020;-75
2023/01/19 00:35:05;;;;;;;13.35;8.68;;;;;;;-1.28;57.26;94134.63;5068347;28;20056;-74
2023/01/19 00:37:31;;;;;;;16.92;10.30;;;;;;;-1.09;59.78;94144.19;5070036;28;20059;-74
2023/01/19 00:39:56;;;;;;;15.38;9.32;;;;;;;-0.97;59.11;94140.50;5071147;28;20029;-74
2023/01/19 00:42:39;;;;;;;12.43;7.93;;;;;;;-1.01;56.19;94140.91;5065434;28;20409;-74
2023/01/19 00:45:07;;;;;;;11.95;6.93;;;;;;;-2.67;50.24;94149.38;5072019;28;20052;-75
2023/01/19 00:47:32;;;;;;;13.73;7.22;;;;;;;-2.11;56.06;94147.16;5066075;28;20028;-74
2023/01/19 00:49:58;;;;;;;20.00;10.88;;;;;;;-1.58;59.11;94142.50;5070830;28;20409;-74
2023/01/19 00:52:23;;;;;;;16.85;10.07;;;;;;;-1.28;61.08;94143.31;5070183;28;20020;-74
2023/01/19 00:54:49;;;;;;;14.98;9.30;;;;;;;-1.04;60.18;94147.22;5045092;28;20043;-74
2023/01/19 00:57:14;;;;;;;16.85;9.23;;;;;;;-0.89;59.53;94149.41;5068726;28;20306;-74
2023/01/19 00:59:40;;;;;;;16.17;9.68;;;;;;;-0.80;60.29;94150.34;5051821;28;20029;-75
2023/01/19 01:02:05;;;;;;;17.80;9.27;;;;;;;-0.77;59.85;94144.84;5068774;28;20058;-74
2023/01/19 01:04:31;;;;;;;14.10;9.32;;;;;;;-0.70;59.63;94149.31;5072285;28;20028;-74
2023/01/19 01:06:56;;;;;;;12.85;8.63;;;;;;;-0.67;57.74;94150.00;5071480;28;20123;-74
2023/01/19 01:09:22;;;;;;;16.73;9.63;;;;;;;-0.65;59.14;94150.72;5066150;28;20033;-75
2023/01/19 01:11:47;;;;;;;11.23;7.20;;;;;;;-1.60;54.87;94157.47;5073059;28;20043;-74
2023/01/19 01:14:13;;;;;;;14.57;9.00;;;;;;;-0.99;60.54;94149.41;5068388;28;20568;-74
2023/01/19 01:16:39;;;;;;;18.25;9.60;;;;;;;-1.01;60.52;94152.19;5070159;28;20027;-75
2023/01/19 01:19:04;;;;;;;15.75;8.18;;;;;;;-0.96;56.29;94157.81;5057822;28;20032;-75
2023/01/19 01:21:29;;;;;;;12.75;7.32;;;;;;;-1.10;53.52;94150.41;5070518;28;20028;-74
2023/01/19 01:23:55;;;;;;;15.85;8.60;;;;;;;-0.75;59.04;94161.22;5064936;28;20032;-75
2023/01/19 01:26:20;;;;;;;12.30;7.50;;;;;;;-1.08;52.81;94153.72;5073736;28;20032;-74
2023/01/19 01:28:45;;;;;;;15.48;7.80;;;;;;;-1.78;52.91;94167.78;5053955;28;20024;-74
2023/01/19 01:31:11;;;;;;;13.68;8.15;;;;;;;-1.25;59.57;94169.13;5071538;28;20040;-74
2023/01/19 01:33:36;;;;;;;13.73;7.45;;;;;;;-1.35;60.21;94171.75;5067856;28;20084;-74
2023/01/19 01:36:02;;;;;;;13.05;7.85;;;;;;;-1.11;57.04;94169.66;5069023;28;20039;-74
2023/01/19 01:38:27;;;;;;;14.50;7.88;;;;;;;-1.00;54.27;94164.28;5050119;28;20036;-74
2023/01/19 01:40:53;;;;;;;11.18;7.38;;;;;;;-1.17;57.57;94173.66;5066997;28;20062;-75
2023/01/19 01:43:19;;;;;;;11.00;6.70;;;;;;;-1.02;48.66;94168.00;5066125;28;20536;-74
2023/01/19 01:45:45;;;;;;;10.98;6.85;;;;;;;-0.97;51.20;94158.78;5069392;28;20119;-74
2023/01/19 01:48:10;;;;;;;11.00;7.28;;;;;;;-1.98;52.52;94166.00;5053558;28;20040;-74
2023/01/19 01:51:22;;;;;;;13.10;7.20;;;;;;;-1.50;51.57;94158.31;5067066;28;20052;-74
2023/01/19 01:53:28;;;;;;;9.05;5.72;;;;;;;-2.63;53.44;94169.00;5065595;28;20024;-74
2023/01/19 01:55:53;;;;;;;11.85;6.82;;;;;;;-1.85;51.13;94170.97;5064938;28;20036;-74
2023/01/19 01:58:19;;;;;;;11.00;6.45;;;;;;;-2.19;51.41;94165.28;5070193;28;20109;-75
2023/01/19 02:03:28;;;;;;;12.48;7.35;;;;;;;-2.25;51.08;94164.03;5053020;28;20076;-75
2023/01/19 02:05:56;;;;;;;11.52;6.53;;;;;;;-1.94;49.94;94166.53;5050374;28;20036;-74
2023/01/19 02:13:59;;;;;;;10.98;6.20;;;;;;;-2.48;51.94;94169.44;5069972;28;20551;-74
2023/01/19 02:16:24;;;;;;;11.88;7.13;;;;;;;-3.28;54.07;94165.69;5047003;28;20072;-74
2023/01/19 02:18:50;;;;;;;9.90;5.45;;;;;;;-2.72;53.14;94172.41;5050716;28;20109;-74
2023/01/19 02:21:21;;;;;;;13.07;6.57;;;;;;;-3.06;51.86;94158.66;5071077;28;20076;-74
2023/01/19 02:23:50;;;;;;;9.00;5.57;;;;;;;-2.64;52.59;94160.34;5050606;28;20142;-74
2023/01/19 02:26:20;;;;;;;8.65;4.97;;;;;;;-2.16;50.75;94159.78;5068736;28;20175;-74
2023/01/19 02:28:48;;;;;;;9.55;5.10;;;;;;;-2.33;50.83;94172.53;5069694;28;20075;-74
2023/01/19 02:31:14;;;;;;;9.93;5.93;;;;;;;-2.01;52.55;94165.44;5048712;28;20099;-75
2023/01/19 02:33:39;;;;;;;9.50;5.25;;;;;;;-1.82;50.03;94163.81;5073244;28;20076;-74
2023/01/19 02:36:07;;;;;;;8.65;5.38;;;;;;;-2.15;52.27;94164.03;5053036;28;20102;-74
2023/01/19 02:38:32;;;;;;;8.27;5.38;;;;;;;-2.97;57.24;94170.09;5050069;28;20306;-74
2023/01/19 02:40:59;;;;;;;9.50;5.95;;;;;;;-2.36;55.32;94175.41;5047859;28;20546;-74
2023/01/19 02:43:24;;;;;;;13.45;5.95;;;;;;;-3.48;56.86;94167.34;5067091;28;20542;-74
2023/01/19 02:45:49;;;;;;;9.05;6.00;;;;;;;-3.12;61.06;94168.78;5065085;28;20032;-74
2023/01/19 02:48:16;;;;;;;9.65;5.55;;;;;;;-2.66;54.37;94167.47;5052733;28;20036;-74
2023/01/19 02:50:48;;;;;;;8.05;5.75;;;;;;;-2.26;56.02;94162.38;5052446;28;20086;-75
2023/01/19 02:53:19;;;;;;;9.95;5.13;;;;;;;-2.55;53.43;94169.16;5071818;28;20154;-75
2023/01/19 02:55:47;;;;;;;10.02;5.97;;;;;;;-2.06;56.62;94162.41;5069412;28;20341;-75
2023/01/19 02:58:49;;;;;;;12.38;6.53;;;;;;;-2.61;51.13;94174.91;5041678;28;20396;-74
2023/01/19 03:01:19;;;;;;;11.48;6.35;;;;;;;-2.24;59.10;94166.50;5009073;28;20052;-75
2023/01/19 03:03:55;;;;;;;9.77;5.80;;;;;;;-2.27;57.01;94155.53;5067591;28;20134;-75
2023/01/19 03:06:40;;;;;;;8.70;5.32;;;;;;;-1.90;49.98;94156.66;5040532;28;20070;-75
2023/01/19 03:09:20;;;;;;;10.48;6.35;;;;;;;-2.53;52.09;94156.00;5067728;28;20544;-75
2023/01/19 03:11:52;;;;;;;11.82;6.30;;;;;;;-2.18;52.41;94156.47;5070686;28;20118;-74
2023/01/19 03:14:20;;;;;;;11.10;6.72;;;;;;;-3.15;52.62;94162.06;5032220;28;20158;-74
2023/01/19 03:16:48;;;;;;;12.32;6.80;;;;;;;-2.76;51.86;94157.03;5068413;28;20083;-74
2023/01/19 03:19:34;;;;;;;12.30;7.38;;;;;;;-3.09;53.30;94156.31;5052608;28;20151;-74
2023/01/19 03:22:12;;;;;;;9.63;5.18;;;;;;;-2.87;54.03;94154.50;5061473;28;20086;-74
2023/01/19 03:24:39;;;;;;;9.45;5.93;;;;;;;-3.58;54.18;94162.06;5043053;28;20133;-74
2023/01/19 03:27:19;;;;;;;10.50;6.32;;;;;;;-4.24;57.56;94161.25;5069282;28;20097;-74
2023/01/19 03:29:47;;;;;;;9.95;6.05;;;;;;;-3.45;57.38;94158.44;5067869;28;20077;-74
2023/01/19 03:32:14;;;;;;;9.30;6.37;;;;;;;-2.80;56.81;94153.03;5063364;28;20112;-75
2023/01/19 03:34:39;;;;;;;10.38;6.18;;;;;;;-2.60;52.77;94154.88;5072483;28;20104;-74
2023/01/19 03:37:05;;;;;;;10.70;6.50;;;;;;;-2.71;53.13;94158.41;5053070;28;20570;-74
2023/01/19 03:39:30;;;;;;;10.82;7.50;;;;;;;-3.94;54.06;94151.13;5066011;28;20104;-74
2023/01/19 03:42:05;;;;;;;9.13;5.40;;;;;;;-3.17;57.78;94158.75;5070051;28;20115;-74
2023/01/19 03:44:32;;;;;;;10.45;6.28;;;;;;;-2.53;53.55;94150.78;5069219;28;20075;-74
2023/01/19 03:46:57;;;;;;;10.35;6.78;;;;;;;-3.20;54.13;94164.19;5054001;28;20095;-75
2023/01/19 03:49:23;;;;;;;10.65;6.40;;;;;;;-2.47;52.63;94145.06;5049668;28;20123;-74
2023/01/19 03:51:49;;;;;;;12.80;7.10;;;;;;;-2.70;51.10;94166.09;5042600;28;20087;-74
2023/01/19 03:54:14;;;;;;;10.82;5.85;;;;;;;-2.70;52.53;94168.72;5072228;28;20089;-74
2023/01/19 03:56:39;;;;;;;9.70;5.85;;;;;;;-2.45;52.38;94163.16;5054905;28;20076;-74
2023/01/19 03:59:06;;;;;;;10.20;5.78;;;;;;;-2.29;53.05;94165.25;5063230;28;20166;-74
2023/01/19 04:01:31;;;;;;;11.65;6.13;;;;;;;-2.43;52.34;94159.47;5067803;28;20132;-74
2023/01/19 04:03:57;;;;;;;10.13;6.28;;;;;;;-2.33;57.49;94161.25;5045658;28;20113;-74
2023/01/19 04:06:22;;;;;;;12.20;6.57;;;;;;;-1.93;50.90;94165.56;5070353;28;20096;-74
2023/01/19 04:08:48;;;;;;;11.77;5.60;;;;;;;-2.27;52.22;94158.94;5070601;28;20087;-74
2023/01/19 04:11:14;;;;;;;10.57;6.85;;;;;;;-3.02;53.56;94167.88;5050007;28;20104;-74
2023/01/19 04:13:39;;;;;;;11.45;6.88;;;;;;;-3.07;53.00;94164.00;5051493;28;20444;-74
2023/01/19 04:16:05;;;;;;;13.25;7.45;;;;;;;-2.73;52.75;94166.34;5054944;28;20577;-75
2023/01/19 04:18:31;;;;;;;10.73;6.95;;;;;;;-2.70;53.23;94160.06;5067297;28;20277;-76
2023/01/19 04:21:03;;;;;;;9.88;6.03;;;;;;;-2.63;52.92;94156.81;5078715;28;20208;-76
2023/01/19 04:23:29;;;;;;;10.05;5.88;;;;;;;-3.06;53.42;94174.28;5069342;28;20143;-76
2023/01/19 04:26:01;;;;;;;11.50;6.95;;;;;;;-3.16;53.15;94168.22;5073272;28;20077;-75
2023/01/19 04:28:27;;;;;;;10.90;6.00;;;;;;;-3.23;53.90;94174.91;5073093;28;20129;-75
2023/01/19 04:30:53;;;;;;;13.68;8.57;;;;;;;-3.28;54.30;94173.50;5071414;28;20107;-76
2023/01/19 04:33:18;;;;;;;11.45;6.93;;;;;;;-3.66;55.46;94167.06;5053431;28;20068;-76
2023/01/19 04:35:45;;;;;;;8.43;5.70;;;;;;;-3.92;55.87;94173.44;5073674;28;20141;-76
2023/01/19 04:38:10;;;;;;;13.05;7.65;;;;;;;-3.76;56.13;94173.97;5054952;28;20433;-76
2023/01/19 04:40:35;;;;;;;10.00;6.07;;;;;;;-3.86;56.44;94164.31;5074632;28;20417;-76
2023/01/19 04:43:01;;;;;;;9.25;5.72;;;;;;;-3.88;55.80;94173.22;5069701;28;20375;-76
2023/01/19 04:45:26;;;;;;;11.88;7.03;;;;;;;-5.07;60.83;94170.19;5074098;28;20332;-76
2023/01/19 04:47:52;;;;;;;10.27;6.28;;;;;;;-4.61;59.06;94171.94;5073872;28;20106;-76
2023/01/19 04:50:17;;;;;;;15.07;8.05;;;;;;;-4.40;57.64;94169.44;5076720;28;20229;-76
2023/01/19 04:52:42;;;;;;;9.95;6.75;;;;;;;-3.96;57.70;94158.22;5072448;28;20098;-76
2023/01/19 04:55:09;;;;;;;9.48;5.40;;;;;;;-3.68;56.47;94166.38;5054975;28;20127;-76
2023/01/19 04:57:34;;;;;;;12.00;7.72;;;;;;;-5.52;61.09;94175.28;5071163;28;20543;-76
2023/01/19 05:00:00;;;;;;;11.48;6.47;;;;;;;-4.52;58.17;94173.81;5048884;28;20215;-76
2023/01/19 05:02:25;;;;;;;10.23;6.15;;;;;;;-4.91;59.80;94178.56;5047347;28;20108;-76
2023/01/19 05:04:50;;;;;;;7.93;4.72;;;;;;;-4.50;59.29;94166.75;5066447;28;20085;-76
2023/01/19 05:07:16;;;;;;;14.70;8.73;;;;;;;-4.32;57.46;94166.22;5070899;28;20547;-76
2023/01/19 05:09:41;;;;;;;13.90;7.90;;;;;;;-3.89;56.33;94172.38;5071771;28;20328;-76
2023/01/19 05:12:07;;;;;;;11.32;7.30;;;;;;;-4.56;58.34;94170.63;5072811;28;20324;-76
2023/01/19 05:14:32;;;;;;;17.05;8.80;;;;;;;-3.68;56.65;94167.19;5053771;28;20100;-76
2023/01/19 05:16:59;;;;;;;8.95;5.72;;;;;;;-4.22;58.22;94164.56;5067646;28;20225;-76
2023/01/19 05:19:24;;;;;;;11.32;6.68;;;;;;;-4.20;57.87;94167.03;5067541;28;20250;-76
2023/01/19 05:21:50;;;;;;;10.38;6.35;;;;;;;-4.26;57.97;94165.75;5071118;28;20104;-76
2023/01/19 05:24:15;;;;;;;11.70;6.63;;;;;;;-4.25;57.75;94169.19;5070584;28;20162;-76
2023/01/19 05:26:41;;;;;;;12.93;7.90;;;;;;;-4.47;57.56;94181.25;5067963;28;20104;-76
2023/01/19 05:29:07;;;;;;;14.20;8.07;;;;;;;-5.08;60.96;94189.31;5073685;28;20089;-76
2023/01/19 05:31:32;;;;;;;14.73;8.32;;;;;;;-4.31;58.20;94176.50;5065984;28;20164;-76
2023/01/19 05:33:58;;;;;;;13.20;8.82;;;;;;;-4.26;58.04;94180.50;5072887;28;20118;-76
2023/01/19 05:36:23;;;;;;;11.55;7.10;;;;;;;-4.42;58.77;94184.31;5072323;28;20533;-76
2023/01/19 05:38:48;;;;;;;14.13;8.57;;;;;;;-4.60;58.34;94182.22;5072651;28;20109;-76
2023/01/19 05:41:14;;;;;;;11.88;7.32;;;;;;;-4.74;59.90;94185.88;5069508;28;20116;-76
2023/01/19 05:43:39;;;;;;;11.93;7.80;;;;;;;-4.87;59.01;94182.56;5067858;28;20108;-76
2023/01/19 05:46:05;;;;;;;16.65;10.55;;;;;;;-4.82;60.10;94181.28;5069807;28;20443;-76
2023/01/19 05:48:30;;;;;;;16.55;8.60;;;;;;;-5.06;60.43;94184.00;5054467;28;20141;-76
2023/01/19 05:50:57;;;;;;;12.80;4.32;;;;;;;-4.47;58.67;94183.84;5065264;28;20104;-76
2023/01/19 05:53:22;;;;;;;13.20;7.43;;;;;;;-4.64;59.72;94183.41;5047213;28;20081;-76
2023/01/19 05:55:47;;;;;;;12.93;7.50;;;;;;;-5.69;62.60;94185.16;5067772;28;20104;-76
2023/01/19 05:58:13;;;;;;;13.25;7.82;;;;;;;-4.95;59.72;94186.56;5068013;28;20433;-76
2023/01/19 06:00:38;;;;;;;12.25;7.75;;;;;;;-4.62;58.76;94196.28;5072975;28;20080;-76
2023/01/19 06:03:05;;;;;;;9.20;5.47;;;;;;;-4.19;58.22;94177.31;5068866;28;20177;-76
2023/01/19 06:05:30;;;;;;;12.10;7.13;;;;;;;-3.94;56.45;94182.31;5072233;28;20226;-76
2023/01/19 06:07:56;;;;;;;11.32;5.30;;;;;;;-4.26;58.57;94177.91;5067992;28;20140;-76
2023/01/19 06:10:21;;;;;;;13.15;7.43;;;;;;;-4.12;57.35;94182.84;5070028;28;20464;-76
2023/01/19 06:12:47;;;;;;;10.15;5.88;;;;;;;-4.01;57.59;94178.56;5069854;28;20706;-76
2023/01/19 06:15:14;;;;;;;8.50;5.72;;;;;;;-4.41;58.10;94173.00;5071986;28;20100;-76
2023/01/19 06:17:39;;;;;;;9.77;5.70;;;;;;;-4.32;58.49;94179.22;5057515;28;20079;-76
2023/01/19 06:20:05;;;;;;;12.02;8.48;;;;;;;-5.45;61.19;94192.06;5050674;28;20142;-76
2023/01/19 06:22:31;;;;;;;13.55;7.63;;;;;;;-5.68;62.74;94192.00;5064613;28;20108;-76
2023/01/19 06:24:56;;;;;;;10.35;6.22;;;;;;;-4.40;59.26;94189.38;5071156;28;20085;-76
2023/01/19 06:27:22;;;;;;;11.18;5.68;;;;;;;-4.41;59.52;94185.97;5068133;28;20632;-76
2023/01/19 06:29:47;;;;;;;12.25;7.50;;;;;;;-5.14;60.48;94194.09;5058449;28;20077;-76
2023/01/19 06:32:12;;;;;;;9.88;6.43;;;;;;;-4.80;59.83;94198.53;5069084;28;20139;-76
2023/01/19 06:34:42;;;;;;;12.05;6.38;;;;;;;-5.14;61.86;94201.91;5068332;28;20107;-76
2023/01/19 06:37:07;;;;;;;;;;;;;;;-5.03;60.90;94191.53;5074773;28;20152;-76
2023/01/19 06:39:33;;;;;;;12.43;7.00;;;;;;;-4.34;59.23;94194.94;5066844;28;19984;-76
2023/01/19 06:41:58;;;;;;;8.93;5.35;;;;;;;-4.51;59.53;94196.28;5069423;28;20359;-76
2023/01/19 06:44:24;;;;;;;9.60;5.30;;;;;;;-3.95;58.13;94197.09;5066494;28;20552;-76
2023/01/19 06:46:49;;;;;;;12.05;7.38;;;;;;;-4.64;58.63;94203.34;5067937;28;20101;-76
2023/01/19 06:49:15;;;;;;;10.23;5.35;;;;;;;-4.31;59.13;94201.69;5073018;28;20084;-76
2023/01/19 06:51:40;;;;;;;12.35;6.80;;;;;;;-3.87;57.37;94204.25;5064793;28;20109;-76
2023/01/19 06:54:06;;;;;;;13.23;7.50;;;;;;;-4.31;57.37;94202.47;5066351;28;20076;-76
2023/01/19 06:56:31;;;;;;;8.57;5.43;;;;;;;-4.43;58.97;94211.25;5071234;28;20082;-76
2023/01/19 06:58:57;;;;;;;12.27;7.60;;;;;;;-5.25;60.58;94210.50;5066651;28;20198;-76
2023/01/19 07:01:22;;;;;;;9.50;6.20;;;;;;;-4.62;59.70;94210.06;5068247;28;20080;-76
2023/01/19 07:03:47;;;;;;;9.65;4.75;;;;;;;-4.20;58.02;94213.81;5070565;28;20124;-76
2023/01/19 07:06:13;;;;;;;10.38;6.53;;;;;;;-4.96;61.18;94217.88;5067518;28;20281;-76
2023/01/19 07:08:38;;;;;;;10.18;6.22;;;;;;;-4.27;59.19;94212.66;5070136;28;20135;-76
2023/01/19 07:11:05;;;;;;;11.68;7.00;;;;;;;-4.32;58.49;94220.78;5070154;28;20170;-76
2023/01/19 07:13:34;;;;;;;8.38;5.07;;;;;;;-4.60;60.75;94217.75;5069435;28;20457;-76
2023/01/19 07:16:12;;;;;;;11.10;6.47;;;;;;;-4.74;62.63;94234.41;5060607;28;20108;-76
2023/01/19 07:18:37;;;;;;;8.95;5.25;;;;;;;-4.08;60.47;94218.03;5068016;28;20108;-76
2023/01/19 07:21:03;;;;;;;12.10;7.97;;;;;;;-4.34;59.85;94223.53;5057220;28;20116;-66
2023/01/19 07:23:29;;;;;;;12.32;6.68;;;;;;;-3.89;61.32;94211.38;5072144;28;20115;-68
2023/01/19 07:26:00;;;;;;;11.70;5.13;;;;;;;-3.69;59.80;94222.78;5066458;28;20071;-67
2023/01/19 07:28:26;;;;;;;11.20;6.05;;;;;;;-3.74;59.74;94224.91;5069629;28;20109;-67
2023/01/19 07:30:52;;;;;;;14.98;9.45;;;;;;;-6.16;67.23;94240.31;5072237;28;20096;-66
2023/01/19 07:33:17;;;;;;;11.00;6.85;;;;;;;-4.20;63.26;94230.25;5067471;28;20417;-65
2023/01/19 07:35:47;;;;;;;9.15;5.07;;;;;;;-4.15;61.78;94240.28;5071905;28;20104;-67
2023/01/19 07:38:12;;;;;;;12.27;6.40;;;;;;;-4.79;63.48;94239.13;5069998;28;20577;-67
2023/01/19 07:40:37;;;;;;;10.23;5.97;;;;;;;-3.92;62.72;94230.66;5068427;28;20087;-68
2023/01/19 07:43:03;;;;;;;12.80;7.30;;;;;;;-3.96;60.83;94231.84;5062387;28;20115;-66
2023/01/19 07:45:28;;;;;;;12.20;7.53;;;;;;;-3.99;60.22;94233.84;5063893;28;20107;-65
2023/01/19 07:47:54;;;;;;;10.52;6.70;;;;;;;-4.36;65.82;94251.41;5070241;28;20126;-67
2023/01/19 07:50:23;;;;;;;10.80;5.82;;;;;;;-4.24;66.81;94241.00;5066189;28;20103;-65
2023/01/19 07:52:51;;;;;;;11.13;6.93;;;;;;;-5.26;70.28;94252.97;5066018;28;20368;-67
2023/01/19 07:55:17;;;;;;;13.45;6.90;;;;;;;-4.83;66.51;94254.94;5065342;28;20092;-66
2023/01/19 07:57:42;;;;;;;11.45;6.97;;;;;;;-4.88;65.31;94257.06;5069765;28;20532;-66
2023/01/19 08:00:08;;;;;;;12.93;8.02;;;;;;;-4.83;61.63;94261.88;5067347;28;20105;-68
2023/01/19 08:02:34;;;;;;;13.95;9.25;;;;;;;-5.86;64.96;94262.41;5063536;28;20615;-67
2023/01/19 08:05:00;;;;;;;9.55;5.82;;;;;;;-4.91;63.00;94269.44;5064821;28;20562;-67
2023/01/19 08:07:25;;;;;;;12.43;7.30;;;;;;;-4.17;59.72;94261.19;5064374;28;20131;-67
2023/01/19 08:09:51;;;;;;;9.18;5.82;;;;;;;-3.76;61.16;94260.66;5062267;28;20081;-67
2023/01/19 08:12:17;;;;;;;10.73;6.80;;;;;;;-3.76;58.64;94257.22;5063985;28;20093;-65
2023/01/19 08:14:42;;;;;;;11.15;6.95;;;;;;;-4.41;61.38;94263.94;5064359;28;20112;-66
2023/01/19 08:17:10;;;;;;;12.63;8.15;;;;;;;-3.63;58.18;94260.50;5068654;28;20473;-67
2023/01/19 08:19:35;;;;;;;9.20;5.55;;;;;;;-3.88;57.70;94261.63;5054245;28;20100;-67
2023/01/19 08:22:01;;;;;;;9.07;4.93;;;;;;;-4.26;61.06;94255.88;5065235;28;20096;-67
2023/01/19 08:24:27;;;;;;;7.07;4.43;;;;;;;-4.38;61.54;94263.69;5064239;28;20437;-65
2023/01/19 08:27:02;;;;;;;10.73;5.88;;;;;;;-3.90;59.82;94261.75;5064467;28;20189;-66
2023/01/19 08:29:30;;;;;;;10.05;5.55;;;;;;;-4.24;59.90;94267.00;5069871;28;20167;-66
2023/01/19 08:31:58;;;;;;;9.75;6.70;;;;;;;-5.07;62.13;94268.81;5068478;28;20151;-67
2023/01/19 08:34:24;;;;;;;12.05;7.07;;;;;;;-4.48;62.72;94273.16;5063760;28;20104;-67
2023/01/19 08:36:49;;;;;;;10.43;5.97;;;;;;;-5.34;63.47;94271.69;5070142;28;20091;-65
2023/01/19 08:39:16;;;;;;;8.68;5.80;;;;;;;-4.58;63.17;94279.03;5071325;28;20105;-68
2023/01/19 08:41:42;;;;;;;7.20;4.65;;;;;;;-4.10;61.20;94274.56;5067535;28;20124;-67
2023/01/19 08:44:07;;;;;;;8.38;5.50;;;;;;;-4.35;61.33;94288.63;5069296;28;20101;-66
2023/01/19 08:46:33;;;;;;;12.70;5.90;;;;;;;-5.01;64.38;94279.69;5069775;28;20108;-67
2023/01/19 08:48:58;;;;;;;9.13;5.75;;;;;;;-4.87;64.31;94289.88;5068781;28;20577;-66
2023/01/19 08:51:23;;;;;;;12.02;7.68;;;;;;;-5.72;66.50;94296.88;5066978;28;20130;-66
2023/01/19 08:53:49;;;;;;;8.50;4.88;;;;;;;-5.12;67.63;94294.31;5068771;28;20073;-65
2023/01/19 08:56:14;;;;;;;9.07;5.82;;;;;;;-4.93;68.54;94289.50;5075848;28;20124;-66
2023/01/19 08:58:40;;;;;;;9.70;5.82;;;;;;;-4.72;73.58;94293.06;5067321;28;20550;-67
2023/01/19 09:01:07;;;;;;;9.65;4.97;;;;;;;-4.56;73.95;94297.94;5067715;28;20088;-66
2023/01/19 09:03:33;;;;;;;11.13;5.55;;;;;;;-4.21;64.80;94292.75;5065547;28;20100;-68
2023/01/19 09:05:59;;;;;;;9.25;5.15;;;;;;;-3.83;63.90;94296.72;5069411;28;20088;-67
2023/01/19 09:08:24;;;;;;;8.82;5.28;;;;;;;-4.32;66.57;94306.56;5071517;28;20091;-66
2023/01/19 09:10:50;;;;;;;8.05;5.47;;;;;;;-4.31;67.84;94322.03;5071750;28;20104;-68
2023/01/19 09:13:15;;;;;;;7.30;4.72;;;;;;;-4.47;66.49;94319.81;5068616;28;20105;-66
2023/01/19 09:15:41;;;;;;;9.10;5.32;;;;;;;-4.33;63.35;94320.50;5070223;28;20135;-67
2023/01/19 09:18:12;;;;;;;9.98;5.47;;;;;;;-4.97;68.83;94330.44;5071957;28;20085;-67
2023/01/19 09:20:38;;;;;;;5.88;4.38;;;;;;;-4.24;65.43;94326.78;5066725;28;20708;-65
2023/01/19 09:23:03;;;;;;;10.68;5.80;;;;;;;-3.43;63.11;94317.91;5067522;28;20392;-65
2023/01/19 09:25:29;;;;;;;6.45;4.75;;;;;;;-2.92;59.46;94305.16;5076042;28;20080;-66
2023/01/19 09:27:55;;;;;;;7.25;5.20;;;;;;;-3.68;59.67;94320.69;5065793;28;20176;-67
2023/01/19 09:30:20;;;;;;;6.28;3.78;;;;;;;-2.98;60.75;94309.09;5072022;28;20108;-66
2023/01/19 09:32:46;;;;;;;13.98;7.53;;;;;;;-2.26;59.15;94311.84;5068519;28;20089;-68
2023/01/19 09:35:11;;;;;;;6.13;4.30;;;;;;;-3.23;60.71;94320.69;5068736;28;20113;-66
2023/01/19 09:37:36;;;;;;;6.00;3.35;;;;;;;-2.78;59.66;94322.25;5064855;28;20468;-68
2023/01/19 09:40:03;;;;;;;12.90;8.82;;;;;;;-3.38;60.20;94320.97;5064489;28;20108;-66
2023/01/19 09:42:30;;;;;;;8.48;4.70;;;;;;;-3.70;61.78;94326.97;5068662;28;20638;-68
2023/01/19 09:44:55;;;;;;;10.10;6.82;;;;;;;-3.68;64.16;94338.06;5065502;28;20107;-66
2023/01/19 09:47:24;;;;;;;8.05;5.25;;;;;;;-3.29;60.97;94328.03;5067793;28;20553;-68
2023/01/19 09:49:57;;;;;;;9.02;4.15;;;;;;;-4.66;76.37;94340.31;5067066;28;20130;-67
2023/01/19 09:52:23;;;;;;;9.18;6.13;;;;;;;-4.56;75.12;94334.31;5057509;28;20131;-68
2023/01/19 09:54:53;;;;;;;7.13;4.22;;;;;;;-3.89;68.05;94331.00;5065027;28;20135;-66
2023/01/19 09:57:19;;;;;;;14.38;5.90;;;;;;;-4.69;67.53;94330.97;5068139;28;20381;-66
2023/01/19 09:59:48;;;;;;;6.65;5.03;;;;;;;-3.79;63.66;94331.97;5071428;28;20720;-67
2023/01/19 10:02:17;;;;;;;7.13;4.82;;;;;;;-4.23;63.31;94344.88;5052206;28;20533;-65
2023/01/19 10:05:20;;;;;;;5.63;4.00;;;;;;;-4.09;65.23;94341.19;5072661;28;20077;-66
2023/01/19 10:08:25;;;;;;;6.85;5.03;;;;;;;-4.31;62.33;94345.44;5073382;28;20096;-68
2023/01/19 10:10:54;;;;;;;7.63;4.38;;;;;;;-4.28;64.73;94351.34;4990210;28;20141;-67
2023/01/19 10:13:31;;;;;;;5.47;4.22;;;;;;;-3.66;64.20;94349.19;5052359;28;20546;-66
2023/01/19 10:16:08;;;;;;;5.45;4.15;;;;;;;-3.78;63.60;94349.22;5069933;28;20104;-67
2023/01/19 10:18:50;;;;;;;5.63;3.72;;;;;;;-3.59;62.02;94346.94;5063650;28;20174;-67
2023/01/19 10:21:18;;;;;;;4.63;3.30;;;;;;;-3.16;60.89;94348.69;5063771;28;20088;-66
2023/01/19 10:24:15;;;;;;;4.95;2.90;;;;;;;-3.08;57.35;94345.50;5064609;28;20109;-66
2023/01/19 10:26:48;;;;;;;5.82;4.00;;;;;;;-3.16;60.99;94343.50;5048853;28;20103;-67
2023/01/19 10:29:37;;;;;;;10.48;7.22;;;;;;;-3.73;63.42;94361.03;5070199;28;20080;-66
2023/01/19 10:32:21;;;;;;;10.02;4.28;;;;;;;-3.16;60.90;94350.50;5075139;28;20134;-68
2023/01/19 10:34:47;;;;;;;7.43;4.90;;;;;;;-3.52;60.26;94354.13;5067531;28;20332;-67
2023/01/19 10:37:17;;;;;;;7.28;3.97;;;;;;;-3.52;63.46;94351.50;5069824;28;20092;-66
2023/01/19 10:39:50;;;;;;;5.28;3.17;;;;;;;-3.91;64.42;94358.91;5064649;28;20126;-66
2023/01/19 10:42:16;;;;;;;5.03;3.15;;;;;;;-4.68;67.39;94345.63;5068400;28;20120;-66
2023/01/19 10:44:41;;;;;;;5.75;3.50;;;;;;;-3.78;62.76;94346.63;5066353;28;20084;-66
2023/01/19 10:47:18;;;;;;;4.60;3.67;;;;;;;-4.59;66.08;94350.13;5072557;28;20131;-68
2023/01/19 10:49:44;;;;;;;5.88;4.68;;;;;;;-4.37;75.37;94353.72;5065542;28;20095;-67
2023/01/19 10:52:19;;;;;;;5.40;3.55;;;;;;;-3.93;64.99;94350.41;5071614;28;20096;-65
2023/01/19 10:54:47;;;;;;;8.23;5.38;;;;;;;-3.67;63.26;94353.56;5069895;28;20096;-67
2023/01/19 10:57:12;;;;;;;5.43;3.85;;;;;;;-3.61;62.00;94348.81;5071519;28;20119;-68
2023/01/19 10:59:43;;;;;;;5.25;3.92;;;;;;;-3.18;61.56;94349.78;5050441;28;20112;-67
2023/01/19 11:02:09;;;;;;;6.68;4.25;;;;;;;-2.86;60.72;94356.75;5072059;28;20089;-68
2023/01/19 11:04:34;;;;;;;5.73;3.83;;;;;;;-3.18;60.21;94352.38;5068091;28;20529;-67
2023/01/19 11:07:13;;;;;;;7.20;5.03;;;;;;;-4.10;63.91;94360.34;5064275;28;20371;-67
2023/01/19 11:09:38;;;;;;;7.97;4.50;;;;;;;-3.64;61.37;94355.09;5069671;28;20072;-65
2023/01/19 11:12:04;;;;;;;5.20;3.75;;;;;;;-3.80;63.09;94364.09;5073222;28;20100;-67
2023/01/19 11:14:29;;;;;;;10.13;6.50;;;;;;;-3.64;61.01;94355.09;5064006;28;20182;-67
2023/01/19 11:16:55;;;;;;;3.10;2.55;;;;;;;-3.23;60.25;94368.38;5053327;28;20801;-67
2023/01/19 11:19:26;;;;;;;5.57;4.32;;;;;;;-3.62;59.00;94363.63;5071462;28;20443;-68
2023/01/19 11:21:52;;;;;;;8.73;5.00;;;;;;;-4.44;63.67;94373.31;5048258;28;20076;-66
2023/01/19 11:24:17;;;;;;;6.93;4.63;;;;;;;-3.52;63.29;94363.72;5069642;28;20104;-65
2023/01/19 11:26:49;;;;;;;6.35;4.57;;;;;;;-3.54;61.17;94361.22;5070089;28;20112;-66
2023/01/19 11:29:17;;;;;;;6.07;4.03;;;;;;;-3.41;59.76;94365.47;5068252;28;20295;-67
2023/01/19 11:31:42;;;;;;;5.65;3.47;;;;;;;-2.71;58.28;94361.66;5067695;28;20798;-66
2023/01/19 11:34:33;;;;;;;3.40;2.47;;;;;;;-2.36;57.37;94360.50;5070295;28;20150;-67
2023/01/19 11:37:04;;;;;;;7.07;4.80;;;;;;;-2.88;59.44;94358.66;5065516;28;20171;-66
2023/01/19 11:39:30;;;;;;;4.35;2.80;;;;;;;-2.70;58.11;94364.13;5066639;28;20096;-66